Kezdőlap
METAR-TAF:

METAR-TAF

Repülőterek :

Krakkó, Lengyelország

földrajzi szélesség: 50-05N, földrajzi hosszúság: 019-48E, magasság: 237 m

Jelenlegi meteorológiai megfigyelések

A jelentés 26 perccel ezelõtt készült, 10:00 UTC
Keleti szél 11 kt
Hőmérséklet 5°C
Páratartalom 75%
Légköri nyomás 1035 hPa
Látótávolság 10 km, vagy több
Szakadozott felhőzet 1500 lábon

METAR: EPKK 161000Z 08011KT 9999 BKN015 05/01 Q1035

Idő: 11:26 (10:26 UTC)

Előrejelzés

A jelentés 1 órával és 56 perccel ezelõtt készült, 08:30 UTC
Az előrejelzés 16-én 09 óra UTC és 17-én 09 óra UTC között érvényes
Kelet-északkeleti szél 12 kt
Látótávolság 10 km, vagy több
Szakadozott felhőzet 3000 lábon
16-én 09 óra UTC és 16-én 13 óra UTC között ideiglenes
Borult 900 lábon
16-én 13 óra UTC és 17-én 09 óra UTC között ideiglenes
Szakadozott felhőzet 600 lábon

TAF: EPKK 160830Z 1609/1709 06012KT 9999 BKN030 TEMPO 1609/1613 OVC009 TEMPO 1613/1709 BKN006

Meteorológiai megfigyelések és előrejelzések több, mint 4000 repülőtéren (METAR és TAF jelentéseket).

A térképen piros és sárga pontok jelzik az elérhető meteorológiai állomásokat.

Mozgassa az egeret a pont fölött, hogy megjelenjen az állomás neve.

Azután kattintson az időjárási megfigyelések és előrejelzések megtekintéséhez.

A térkép megváltoztatása: kattintson a fekete keresztel jelölt zöld gombra ráközelítéshez, a vonallal jelölt zöld gombra távolításhoz, vagy a zöld nyilakra a szomszédos térképek eléréséhez.


METAR-TAF: